Kaltag, AK

1:30 PM AKDT on September 30, 2014 (GMT -0800)
Kaltag | Change Station
CLOSE
Current Station
Airport
Location: Kaltag,
Elevation: 200 ft
Nearby Weather Stations

Elev 200 ft 64.32 °N, 158.74 °W | Updated 37 minutes ago

Clear
Clear
44 °F
Feels Like 42 °F
N
4
Wind Variable Wind from Variable

Today
High -- | Low -- °F
--% Chance of Precip.
Yesterday
High -- | Low -- °F
Precip. -- in
8:41 AM 8:06 PM
Waxing Crescent, 40% visible
Pressure 30.29 in
Visibility 10.0 miles
Clouds Clear
Windchill 42 °F
Dew Point 30 °F
Humidity 58%
Rainfall 0.00 in
Snow Depth 19 in , 0 in , 0 in
UV 1 out of 12
Pollen Not available.
Air Quality Not available.
Flu Activity Not available.
METAR PAKV 302053Z AUTO VRB03KT 10SM CLR 07/M01 A3028 RMK AO1 SLP256 T00671011 51007 TSNO

More Conditions Fewer Conditions

Pressure 30.29 in
Visibility 10.0 miles
Clouds Clear
Windchill 42 °F
Dew Point 30 °F
Humidity 58%
Rainfall 0.00 in
Snow Depth 19 in , 0 in , 0 in
UV 1 out of 12
Pollen Not available.
Air Quality Not available.
Flu Activity Not available.
METAR PAKV 302053Z AUTO VRB03KT 10SM CLR 07/M01 A3028 RMK AO1 SLP256 T00671011 51007 TSNO

More Conditions Fewer Conditions

10-Day Weather Forecast

Almanac

Astronomy

Sep. 30, 2014 Rise Set
Actual Time 8:41 AM AKDT 8:06 PM AKDT
Civil Twilight 7:53 AM AKDT 8:53 PM AKDT
Nautical Twilight 6:57 AM AKDT 9:50 PM AKDT
Astronomical Twilight 5:55 AM AKDT 10:51 PM AKDT
Moon 4:45 PM AKDT 11:04 PM AKDT
Length of Visible Light 13h 00m
Length of Day
11h 24m
Tomorrow will be 6m 29s shorter.
Waxing Crescent, 40% of the Moon is Illuminated
Today
Waxing Crescent
Oct 1
First Quarter
Oct 8
Full
Oct 15
Last Quarter
Oct 23
New

Today's Extremes

State Highs State Lows

Community

WunderPhotos

Upload Photos

1,757,755 photos uploaded!

Nearby

Snow Depth

Station Depth Elevation
Upper Chena 19 in 2850 ft
Fort Yukon 0 in 430 ft
Eagle Summit 0 in 3650 ft
Grouse Creek Divide 0 in 700 ft
Summit Creek 0 in 1400 ft

Earthquake Activity

City Distance Mag. Time & Date
No recent earthquake activity has been reported nearby.
Minimum magnitude displayed is 2.5.

Coastal Water Temperatures

Place Temperature
No Stations Reporting

Nearby Weather Stations